sensor_id;sensor_type;location;lat;lon;timestamp;temperature;humidity
7936;DHT22;4013;49.744;8.118;2023-03-01T00:00:19;-0.10;99.90
7936;DHT22;4013;49.744;8.118;2023-03-01T00:02:46;-0.20;99.90
7936;DHT22;4013;49.744;8.118;2023-03-01T00:05:13;-0.10;99.90
7936;DHT22;4013;49.744;8.118;2023-03-01T00:07:40;-0.20;99.90
7936;DHT22;4013;49.744;8.118;2023-03-01T00:10:08;-0.10;99.90
7936;DHT22;4013;49.744;8.118;2023-03-01T00:12:35;-0.10;99.90
7936;DHT22;4013;49.744;8.118;2023-03-01T00:15:03;0.00;99.90
7936;DHT22;4013;49.744;8.118;2023-03-01T00:17:32;0.00;99.90
7936;DHT22;4013;49.744;8.118;2023-03-01T00:19:59;-0.10;99.90
7936;DHT22;4013;49.744;8.118;2023-03-01T00:22:26;0.00;99.90
7936;DHT22;4013;49.744;8.118;2023-03-01T00:24:54;-0.10;99.90
7936;DHT22;4013;49.744;8.118;2023-03-01T00:27:21;-0.30;99.90
7936;DHT22;4013;49.744;8.118;2023-03-01T00:29:48;-0.40;99.90
7936;DHT22;4013;49.744;8.118;2023-03-01T00:32:15;-0.40;99.90
7936;DHT22;4013;49.744;8.118;2023-03-01T00:34:44;-0.40;99.90
7936;DHT22;4013;49.744;8.118;2023-03-01T00:37:19;-0.50;99.90
7936;DHT22;4013;49.744;8.118;2023-03-01T00:39:46;-0.30;99.90
7936;DHT22;4013;49.744;8.118;2023-03-01T00:42:13;-0.30;99.90
7936;DHT22;4013;49.744;8.118;2023-03-01T00:44:40;-0.20;99.90
7936;DHT22;4013;49.744;8.118;2023-03-01T00:47:07;-0.20;99.90
7936;DHT22;4013;49.744;8.118;2023-03-01T00:49:34;-0.30;99.90
7936;DHT22;4013;49.744;8.118;2023-03-01T00:52:03;-0.20;99.90
7936;DHT22;4013;49.744;8.118;2023-03-01T00:54:30;-0.30;99.90
7936;DHT22;4013;49.744;8.118;2023-03-01T00:56:57;-0.20;99.90
7936;DHT22;4013;49.744;8.118;2023-03-01T00:59:24;-0.20;99.90
7936;DHT22;4013;49.744;8.118;2023-03-01T01:01:51;-0.20;99.90
7936;DHT22;4013;49.744;8.118;2023-03-01T01:04:18;-0.20;99.90
7936;DHT22;4013;49.744;8.118;2023-03-01T01:06:46;-0.20;99.90
7936;DHT22;4013;49.744;8.118;2023-03-01T01:09:15;-0.20;99.90
7936;DHT22;4013;49.744;8.118;2023-03-01T01:11:43;-0.40;99.90
7936;DHT22;4013;49.744;8.118;2023-03-01T01:14:10;-0.30;99.90
7936;DHT22;4013;49.744;8.118;2023-03-01T01:16:37;-0.30;99.90
7936;DHT22;4013;49.744;8.118;2023-03-01T01:19:04;-0.40;99.90
7936;DHT22;4013;49.744;8.118;2023-03-01T01:21:31;-0.40;99.90
7936;DHT22;4013;49.744;8.118;2023-03-01T01:23:59;-0.40;99.90
7936;DHT22;4013;49.744;8.118;2023-03-01T01:26:29;-0.30;99.90
7936;DHT22;4013;49.744;8.118;2023-03-01T01:28:57;-0.30;99.90
7936;DHT22;4013;49.744;8.118;2023-03-01T01:31:25;-0.30;99.90
7936;DHT22;4013;49.744;8.118;2023-03-01T01:33:52;-0.30;99.90
7936;DHT22;4013;49.744;8.118;2023-03-01T01:36:19;-0.30;99.90
7936;DHT22;4013;49.744;8.118;2023-03-01T01:38:47;-0.30;99.90
7936;DHT22;4013;49.744;8.118;2023-03-01T01:41:15;-0.30;99.90
7936;DHT22;4013;49.744;8.118;2023-03-01T01:43:45;-0.30;99.90
7936;DHT22;4013;49.744;8.118;2023-03-01T01:46:19;-0.30;99.90
7936;DHT22;4013;49.744;8.118;2023-03-01T01:48:50;-0.30;99.90
7936;DHT22;4013;49.744;8.118;2023-03-01T01:51:24;-0.30;99.90
7936;DHT22;4013;49.744;8.118;2023-03-01T01:53:57;-0.30;99.90
7936;DHT22;4013;49.744;8.118;2023-03-01T01:56:26;-0.30;99.90
7936;DHT22;4013;49.744;8.118;2023-03-01T01:58:57;-0.50;99.90
7936;DHT22;4013;49.744;8.118;2023-03-01T02:01:24;-0.50;99.90
7936;DHT22;4013;49.744;8.118;2023-03-01T02:03:52;-0.40;99.90
7936;DHT22;4013;49.744;8.118;2023-03-01T02:06:22;-0.40;99.90
7936;DHT22;4013;49.744;8.118;2023-03-01T02:08:57;-0.40;99.90
7936;DHT22;4013;49.744;8.118;2023-03-01T02:11:29;-0.30;99.90
7936;DHT22;4013;49.744;8.118;2023-03-01T02:13:58;-0.40;99.90
7936;DHT22;4013;49.744;8.118;2023-03-01T02:16:25;-0.40;99.90
7936;DHT22;4013;49.744;8.118;2023-03-01T02:18:54;-0.50;99.90
7936;DHT22;4013;49.744;8.118;2023-03-01T02:21:32;-0.50;99.90
7936;DHT22;4013;49.744;8.118;2023-03-01T02:24:08;-0.50;99.90
7936;DHT22;4013;49.744;8.118;2023-03-01T02:26:42;-0.60;99.90
7936;DHT22;4013;49.744;8.118;2023-03-01T02:29:11;-0.50;99.90
7936;DHT22;4013;49.744;8.118;2023-03-01T02:31:38;-0.50;99.90
7936;DHT22;4013;49.744;8.118;2023-03-01T02:34:12;-0.40;99.90
7936;DHT22;4013;49.744;8.118;2023-03-01T02:36:43;-0.40;99.90
7936;DHT22;4013;49.744;8.118;2023-03-01T02:39:14;-0.40;99.90
7936;DHT22;4013;49.744;8.118;2023-03-01T02:41:47;-0.40;99.90
7936;DHT22;4013;49.744;8.118;2023-03-01T02:44:16;-0.30;99.90
7936;DHT22;4013;49.744;8.118;2023-03-01T02:46:44;-0.20;99.90
7936;DHT22;4013;49.744;8.118;2023-03-01T02:49:24;-0.20;99.90
7936;DHT22;4013;49.744;8.118;2023-03-01T02:52:04;-0.40;99.90
7936;DHT22;4013;49.744;8.118;2023-03-01T02:54:39;-0.40;99.90
7936;DHT22;4013;49.744;8.118;2023-03-01T02:57:07;-0.30;99.90
7936;DHT22;4013;49.744;8.118;2023-03-01T02:59:37;-0.30;99.90
7936;DHT22;4013;49.744;8.118;2023-03-01T03:02:06;-0.20;99.90
7936;DHT22;4013;49.744;8.118;2023-03-01T03:04:33;-0.10;99.90
7936;DHT22;4013;49.744;8.118;2023-03-01T03:07:00;-0.10;99.90
7936;DHT22;4013;49.744;8.118;2023-03-01T03:09:27;-0.30;99.90
7936;DHT22;4013;49.744;8.118;2023-03-01T03:11:55;-0.20;99.90
7936;DHT22;4013;49.744;8.118;2023-03-01T03:14:21;-0.20;99.90
7936;DHT22;4013;49.744;8.118;2023-03-01T03:16:50;-0.20;99.90
7936;DHT22;4013;49.744;8.118;2023-03-01T03:19:19;-0.20;99.90
7936;DHT22;4013;49.744;8.118;2023-03-01T03:21:46;-0.20;99.90
7936;DHT22;4013;49.744;8.118;2023-03-01T03:24:13;-0.20;99.90
7936;DHT22;4013;49.744;8.118;2023-03-01T03:26:40;-0.20;99.90
7936;DHT22;4013;49.744;8.118;2023-03-01T03:29:07;-0.30;99.90
7936;DHT22;4013;49.744;8.118;2023-03-01T03:31:34;-0.40;99.90
7936;DHT22;4013;49.744;8.118;2023-03-01T03:34:02;-0.50;99.90
7936;DHT22;4013;49.744;8.118;2023-03-01T03:36:29;-0.50;99.90
7936;DHT22;4013;49.744;8.118;2023-03-01T03:38:56;-0.40;99.90
7936;DHT22;4013;49.744;8.118;2023-03-01T03:41:23;-0.40;99.90
7936;DHT22;4013;49.744;8.118;2023-03-01T03:43:50;-0.30;99.90
7936;DHT22;4013;49.744;8.118;2023-03-01T03:46:17;-0.30;99.90
7936;DHT22;4013;49.744;8.118;2023-03-01T03:48:45;-0.40;99.90
7936;DHT22;4013;49.744;8.118;2023-03-01T03:51:15;-0.30;99.90
7936;DHT22;4013;49.744;8.118;2023-03-01T03:53:43;-0.40;99.90
7936;DHT22;4013;49.744;8.118;2023-03-01T03:56:10;-0.40;99.90
7936;DHT22;4013;49.744;8.118;2023-03-01T03:58:37;-0.40;99.90
7936;DHT22;4013;49.744;8.118;2023-03-01T04:01:05;-0.40;99.90
7936;DHT22;4013;49.744;8.118;2023-03-01T04:03:32;-0.40;99.90
7936;DHT22;4013;49.744;8.118;2023-03-01T04:06:01;-0.40;99.90
7936;DHT22;4013;49.744;8.118;2023-03-01T04:08:29;-0.40;99.90
7936;DHT22;4013;49.744;8.118;2023-03-01T04:11:01;-0.40;99.90
7936;DHT22;4013;49.744;8.118;2023-03-01T04:13:50;-0.50;99.90
7936;DHT22;4013;49.744;8.118;2023-03-01T04:16:18;-0.50;99.90
7936;DHT22;4013;49.744;8.118;2023-03-01T04:18:47;-0.40;99.90
7936;DHT22;4013;49.744;8.118;2023-03-01T04:21:14;-0.30;99.90
7936;DHT22;4013;49.744;8.118;2023-03-01T04:23:42;-0.30;99.90
7936;DHT22;4013;49.744;8.118;2023-03-01T04:26:09;-0.30;99.90
7936;DHT22;4013;49.744;8.118;2023-03-01T04:28:37;-0.30;99.90
7936;DHT22;4013;49.744;8.118;2023-03-01T04:31:10;-0.30;99.90
7936;DHT22;4013;49.744;8.118;2023-03-01T04:33:40;-0.30;99.90
7936;DHT22;4013;49.744;8.118;2023-03-01T04:36:09;-0.30;99.90
7936;DHT22;4013;49.744;8.118;2023-03-01T04:38:36;-0.40;99.90
7936;DHT22;4013;49.744;8.118;2023-03-01T04:41:06;-0.40;99.90
7936;DHT22;4013;49.744;8.118;2023-03-01T04:43:33;-0.50;99.90
7936;DHT22;4013;49.744;8.118;2023-03-01T04:46:01;-0.50;99.90
7936;DHT22;4013;49.744;8.118;2023-03-01T04:48:30;-0.60;99.90
7936;DHT22;4013;49.744;8.118;2023-03-01T04:50:58;-0.60;99.90
7936;DHT22;4013;49.744;8.118;2023-03-01T04:53:25;-0.60;99.90
7936;DHT22;4013;49.744;8.118;2023-03-01T04:55:53;-0.60;99.90
7936;DHT22;4013;49.744;8.118;2023-03-01T04:58:22;-0.60;99.90
7936;DHT22;4013;49.744;8.118;2023-03-01T05:00:49;-0.60;99.90
7936;DHT22;4013;49.744;8.118;2023-03-01T05:03:20;-0.60;99.90
7936;DHT22;4013;49.744;8.118;2023-03-01T05:05:49;-0.50;99.90
7936;DHT22;4013;49.744;8.118;2023-03-01T05:08:16;-0.40;99.90
7936;DHT22;4013;49.744;8.118;2023-03-01T05:10:45;-0.40;99.90
7936;DHT22;4013;49.744;8.118;2023-03-01T05:13:13;-0.30;99.90
7936;DHT22;4013;49.744;8.118;2023-03-01T05:15:48;-0.20;99.90
7936;DHT22;4013;49.744;8.118;2023-03-01T05:18:15;-0.30;99.90
7936;DHT22;4013;49.744;8.118;2023-03-01T05:20:42;-0.30;99.90
7936;DHT22;4013;49.744;8.118;2023-03-01T05:23:10;-0.30;99.90
7936;DHT22;4013;49.744;8.118;2023-03-01T05:25:37;-0.30;99.90
7936;DHT22;4013;49.744;8.118;2023-03-01T05:28:06;-0.30;99.90
7936;DHT22;4013;49.744;8.118;2023-03-01T05:30:35;-0.30;99.90
7936;DHT22;4013;49.744;8.118;2023-03-01T05:33:06;-0.30;99.90
7936;DHT22;4013;49.744;8.118;2023-03-01T05:35:39;-0.20;99.90
7936;DHT22;4013;49.744;8.118;2023-03-01T05:38:06;-0.20;99.90
7936;DHT22;4013;49.744;8.118;2023-03-01T05:40:34;-0.20;99.90
7936;DHT22;4013;49.744;8.118;2023-03-01T05:43:01;-0.10;99.90
7936;DHT22;4013;49.744;8.118;2023-03-01T05:45:31;0.00;99.90
7936;DHT22;4013;49.744;8.118;2023-03-01T05:47:59;0.00;99.90
7936;DHT22;4013;49.744;8.118;2023-03-01T05:50:29;0.00;99.90
7936;DHT22;4013;49.744;8.118;2023-03-01T05:53:01;0.00;99.90
7936;DHT22;4013;49.744;8.118;2023-03-01T05:55:29;0.00;99.90
7936;DHT22;4013;49.744;8.118;2023-03-01T05:57:58;-0.10;99.90
7936;DHT22;4013;49.744;8.118;2023-03-01T06:00:27;-0.20;99.90
7936;DHT22;4013;49.744;8.118;2023-03-01T06:02:55;-0.20;99.90
7936;DHT22;4013;49.744;8.118;2023-03-01T06:05:22;-0.20;99.90
7936;DHT22;4013;49.744;8.118;2023-03-01T06:07:50;-0.20;99.90
7936;DHT22;4013;49.744;8.118;2023-03-01T06:10:19;-0.30;99.90
7936;DHT22;4013;49.744;8.118;2023-03-01T06:12:46;-0.30;99.90
7936;DHT22;4013;49.744;8.118;2023-03-01T06:15:15;-0.30;99.90
7936;DHT22;4013;49.744;8.118;2023-03-01T06:17:43;-0.20;99.90
7936;DHT22;4013;49.744;8.118;2023-03-01T06:20:13;-0.20;99.90
7936;DHT22;4013;49.744;8.118;2023-03-01T06:22:41;-0.10;99.90
7936;DHT22;4013;49.744;8.118;2023-03-01T06:25:10;-0.10;99.90
7936;DHT22;4013;49.744;8.118;2023-03-01T06:27:38;-0.10;99.90
7936;DHT22;4013;49.744;8.118;2023-03-01T06:30:06;-0.10;99.90
7936;DHT22;4013;49.744;8.118;2023-03-01T06:32:33;-0.10;99.90
7936;DHT22;4013;49.744;8.118;2023-03-01T06:35:00;-0.20;99.90
7936;DHT22;4013;49.744;8.118;2023-03-01T06:37:27;-0.30;99.90
7936;DHT22;4013;49.744;8.118;2023-03-01T06:39:54;-0.40;99.90
7936;DHT22;4013;49.744;8.118;2023-03-01T06:42:22;-0.40;99.90
7936;DHT22;4013;49.744;8.118;2023-03-01T06:44:49;-0.40;99.90
7936;DHT22;4013;49.744;8.118;2023-03-01T06:47:16;-0.30;99.90
7936;DHT22;4013;49.744;8.118;2023-03-01T06:49:43;-0.30;99.90
7936;DHT22;4013;49.744;8.118;2023-03-01T06:52:10;-0.40;99.90
7936;DHT22;4013;49.744;8.118;2023-03-01T06:54:37;-0.30;99.90
7936;DHT22;4013;49.744;8.118;2023-03-01T06:57:04;-0.30;99.90
7936;DHT22;4013;49.744;8.118;2023-03-01T06:59:32;-0.20;99.90
7936;DHT22;4013;49.744;8.118;2023-03-01T07:01:59;-0.10;99.90
7936;DHT22;4013;49.744;8.118;2023-03-01T07:04:26;-0.10;99.90
7936;DHT22;4013;49.744;8.118;2023-03-01T07:06:54;-0.10;99.90
7936;DHT22;4013;49.744;8.118;2023-03-01T07:09:21;-0.10;99.90
7936;DHT22;4013;49.744;8.118;2023-03-01T07:11:48;-0.10;99.90
7936;DHT22;4013;49.744;8.118;2023-03-01T07:14:15;0.00;99.90
7936;DHT22;4013;49.744;8.118;2023-03-01T07:16:43;-0.10;99.90
7936;DHT22;4013;49.744;8.118;2023-03-01T07:19:10;-0.20;99.90
7936;DHT22;4013;49.744;8.118;2023-03-01T07:21:37;-0.20;99.90
7936;DHT22;4013;49.744;8.118;2023-03-01T07:24:06;-0.10;99.90
7936;DHT22;4013;49.744;8.118;2023-03-01T07:26:33;0.00;99.90
7936;DHT22;4013;49.744;8.118;2023-03-01T07:29:01;0.00;99.90
7936;DHT22;4013;49.744;8.118;2023-03-01T07:31:28;0.00;99.90
7936;DHT22;4013;49.744;8.118;2023-03-01T07:33:56;-0.10;99.90
7936;DHT22;4013;49.744;8.118;2023-03-01T07:36:24;-0.10;99.90
7936;DHT22;4013;49.744;8.118;2023-03-01T07:38:51;0.00;99.90
7936;DHT22;4013;49.744;8.118;2023-03-01T07:41:18;0.10;99.90
7936;DHT22;4013;49.744;8.118;2023-03-01T07:43:45;0.10;99.90
7936;DHT22;4013;49.744;8.118;2023-03-01T07:46:12;0.10;99.90
7936;DHT22;4013;49.744;8.118;2023-03-01T07:48:39;0.10;99.90
7936;DHT22;4013;49.744;8.118;2023-03-01T07:51:07;0.10;99.90
7936;DHT22;4013;49.744;8.118;2023-03-01T07:53:34;0.20;99.90
7936;DHT22;4013;49.744;8.118;2023-03-01T07:56:03;0.20;99.90
7936;DHT22;4013;49.744;8.118;2023-03-01T07:58:30;0.20;99.90
7936;DHT22;4013;49.744;8.118;2023-03-01T08:01:01;0.30;99.90
7936;DHT22;4013;49.744;8.118;2023-03-01T08:03:28;0.40;99.90
7936;DHT22;4013;49.744;8.118;2023-03-01T08:05:55;0.50;99.90
7936;DHT22;4013;49.744;8.118;2023-03-01T08:08:23;0.50;99.90
7936;DHT22;4013;49.744;8.118;2023-03-01T08:10:51;0.60;99.90
7936;DHT22;4013;49.744;8.118;2023-03-01T08:13:18;0.70;99.90
7936;DHT22;4013;49.744;8.118;2023-03-01T08:15:48;0.80;99.90
7936;DHT22;4013;49.744;8.118;2023-03-01T08:18:15;0.80;99.90
7936;DHT22;4013;49.744;8.118;2023-03-01T08:20:42;0.70;99.90
7936;DHT22;4013;49.744;8.118;2023-03-01T08:23:09;0.80;99.90
7936;DHT22;4013;49.744;8.118;2023-03-01T08:25:37;0.80;99.90
7936;DHT22;4013;49.744;8.118;2023-03-01T08:28:05;0.90;99.90
7936;DHT22;4013;49.744;8.118;2023-03-01T08:30:32;0.90;99.90
7936;DHT22;4013;49.744;8.118;2023-03-01T08:32:59;0.90;99.90
7936;DHT22;4013;49.744;8.118;2023-03-01T08:35:26;1.00;99.90
7936;DHT22;4013;49.744;8.118;2023-03-01T08:37:52;1.00;99.90
7936;DHT22;4013;49.744;8.118;2023-03-01T08:40:19;1.00;99.90
7936;DHT22;4013;49.744;8.118;2023-03-01T08:42:48;1.10;99.90
7936;DHT22;4013;49.744;8.118;2023-03-01T08:45:15;1.10;99.90
7936;DHT22;4013;49.744;8.118;2023-03-01T08:47:43;1.20;99.90
7936;DHT22;4013;49.744;8.118;2023-03-01T08:50:11;1.30;99.90
7936;DHT22;4013;49.744;8.118;2023-03-01T08:52:38;1.30;99.90
7936;DHT22;4013;49.744;8.118;2023-03-01T08:55:06;1.40;99.90
7936;DHT22;4013;49.744;8.118;2023-03-01T08:57:33;1.40;99.90
7936;DHT22;4013;49.744;8.118;2023-03-01T09:00:02;1.50;99.90
7936;DHT22;4013;49.744;8.118;2023-03-01T09:02:34;1.50;99.90
7936;DHT22;4013;49.744;8.118;2023-03-01T09:05:01;1.70;99.90
7936;DHT22;4013;49.744;8.118;2023-03-01T09:07:28;1.80;99.90
7936;DHT22;4013;49.744;8.118;2023-03-01T09:09:55;1.80;99.90
7936;DHT22;4013;49.744;8.118;2023-03-01T09:12:22;1.80;99.90
7936;DHT22;4013;49.744;8.118;2023-03-01T09:14:50;2.00;99.90
7936;DHT22;4013;49.744;8.118;2023-03-01T09:17:18;2.00;99.90
7936;DHT22;4013;49.744;8.118;2023-03-01T09:19:47;2.10;99.90
7936;DHT22;4013;49.744;8.118;2023-03-01T09:22:14;2.20;99.90
7936;DHT22;4013;49.744;8.118;2023-03-01T09:24:41;2.30;99.90
7936;DHT22;4013;49.744;8.118;2023-03-01T09:27:08;2.40;99.90
7936;DHT22;4013;49.744;8.118;2023-03-01T09:29:37;2.40;99.90
7936;DHT22;4013;49.744;8.118;2023-03-01T09:32:04;2.60;99.90
7936;DHT22;4013;49.744;8.118;2023-03-01T09:34:32;2.50;99.90
7936;DHT22;4013;49.744;8.118;2023-03-01T09:37:19;2.60;99.90
7936;DHT22;4013;49.744;8.118;2023-03-01T09:39:46;2.50;99.90
7936;DHT22;4013;49.744;8.118;2023-03-01T09:42:13;2.60;99.90
7936;DHT22;4013;49.744;8.118;2023-03-01T09:44:46;2.50;99.90
7936;DHT22;4013;49.744;8.118;2023-03-01T09:47:17;2.50;99.90
7936;DHT22;4013;49.744;8.118;2023-03-01T09:49:53;2.50;99.90
7936;DHT22;4013;49.744;8.118;2023-03-01T09:52:28;2.60;99.90
7936;DHT22;4013;49.744;8.118;2023-03-01T09:54:56;2.70;99.90
7936;DHT22;4013;49.744;8.118;2023-03-01T09:57:30;2.70;99.90
7936;DHT22;4013;49.744;8.118;2023-03-01T10:00:14;2.80;99.90
7936;DHT22;4013;49.744;8.118;2023-03-01T10:02:46;2.80;99.90
7936;DHT22;4013;49.744;8.118;2023-03-01T10:05:31;2.80;99.90
7936;DHT22;4013;49.744;8.118;2023-03-01T10:08:19;2.90;99.90
7936;DHT22;4013;49.744;8.118;2023-03-01T10:10:52;2.90;99.90
7936;DHT22;4013;49.744;8.118;2023-03-01T10:13:24;3.00;99.90
7936;DHT22;4013;49.744;8.118;2023-03-01T10:15:55;3.00;99.90
7936;DHT22;4013;49.744;8.118;2023-03-01T10:18:25;3.10;99.90
7936;DHT22;4013;49.744;8.118;2023-03-01T10:20:58;3.10;99.90
7936;DHT22;4013;49.744;8.118;2023-03-01T10:23:26;3.20;99.90
7936;DHT22;4013;49.744;8.118;2023-03-01T10:26:08;3.20;99.90
7936;DHT22;4013;49.744;8.118;2023-03-01T10:28:44;3.30;99.90
7936;DHT22;4013;49.744;8.118;2023-03-01T10:31:18;3.40;99.90
7936;DHT22;4013;49.744;8.118;2023-03-01T10:33:46;3.40;99.90
7936;DHT22;4013;49.744;8.118;2023-03-01T10:36:15;3.30;99.90
7936;DHT22;4013;49.744;8.118;2023-03-01T10:38:50;3.40;99.90
7936;DHT22;4013;49.744;8.118;2023-03-01T10:41:19;3.60;99.90
7936;DHT22;4013;49.744;8.118;2023-03-01T10:43:50;3.70;99.90
7936;DHT22;4013;49.744;8.118;2023-03-01T10:46:24;3.70;99.90
7936;DHT22;4013;49.744;8.118;2023-03-01T10:49:13;3.70;99.90
7936;DHT22;4013;49.744;8.118;2023-03-01T10:51:44;3.80;99.90
7936;DHT22;4013;49.744;8.118;2023-03-01T10:54:17;3.80;99.90
7936;DHT22;4013;49.744;8.118;2023-03-01T10:56:49;3.80;99.90
7936;DHT22;4013;49.744;8.118;2023-03-01T10:59:28;3.80;99.90
7936;DHT22;4013;49.744;8.118;2023-03-01T11:02:14;3.90;99.90
7936;DHT22;4013;49.744;8.118;2023-03-01T11:04:56;3.90;99.90
7936;DHT22;4013;49.744;8.118;2023-03-01T11:07:25;3.90;99.90
7936;DHT22;4013;49.744;8.118;2023-03-01T11:09:52;4.00;99.90
7936;DHT22;4013;49.744;8.118;2023-03-01T11:12:21;4.10;99.90
7936;DHT22;4013;49.744;8.118;2023-03-01T11:14:48;4.20;99.90
7936;DHT22;4013;49.744;8.118;2023-03-01T11:17:21;4.30;99.90
7936;DHT22;4013;49.744;8.118;2023-03-01T11:20:00;4.30;99.90
7936;DHT22;4013;49.744;8.118;2023-03-01T11:22:31;4.40;99.90
7936;DHT22;4013;49.744;8.118;2023-03-01T11:24:59;4.60;99.90
7936;DHT22;4013;49.744;8.118;2023-03-01T11:27:30;4.60;99.90
7936;DHT22;4013;49.744;8.118;2023-03-01T11:30:02;4.70;99.90
7936;DHT22;4013;49.744;8.118;2023-03-01T11:32:35;4.60;99.90
7936;DHT22;4013;49.744;8.118;2023-03-01T11:35:12;4.60;99.90
7936;DHT22;4013;49.744;8.118;2023-03-01T11:37:48;4.70;99.90
7936;DHT22;4013;49.744;8.118;2023-03-01T11:40:25;4.90;99.90
7936;DHT22;4013;49.744;8.118;2023-03-01T11:43:01;4.90;99.90
7936;DHT22;4013;49.744;8.118;2023-03-01T11:45:42;5.00;99.90
7936;DHT22;4013;49.744;8.118;2023-03-01T11:48:35;5.10;99.90
7936;DHT22;4013;49.744;8.118;2023-03-01T11:51:09;5.10;99.90
7936;DHT22;4013;49.744;8.118;2023-03-01T11:53:53;5.20;99.90
7936;DHT22;4013;49.744;8.118;2023-03-01T11:56:30;5.10;99.90
7936;DHT22;4013;49.744;8.118;2023-03-01T11:59:24;5.00;99.90
7936;DHT22;4013;49.744;8.118;2023-03-01T12:02:16;5.10;99.90
7936;DHT22;4013;49.744;8.118;2023-03-01T12:05:06;5.20;99.90
7936;DHT22;4013;49.744;8.118;2023-03-01T12:07:42;5.20;99.90
7936;DHT22;4013;49.744;8.118;2023-03-01T12:10:23;5.20;99.90
7936;DHT22;4013;49.744;8.118;2023-03-01T12:13:03;5.30;99.90
7936;DHT22;4013;49.744;8.118;2023-03-01T12:15:45;5.40;99.90
7936;DHT22;4013;49.744;8.118;2023-03-01T12:21:35;5.20;99.90
7936;DHT22;4013;49.744;8.118;2023-03-01T12:24:14;5.30;99.90
7936;DHT22;4013;49.744;8.118;2023-03-01T12:26:59;5.30;99.90
7936;DHT22;4013;49.744;8.118;2023-03-01T12:29:36;5.40;99.90
7936;DHT22;4013;49.744;8.118;2023-03-01T12:32:19;5.40;99.90
7936;DHT22;4013;49.744;8.118;2023-03-01T12:37:54;5.50;99.90
7936;DHT22;4013;49.744;8.118;2023-03-01T12:40:35;5.60;99.90
7936;DHT22;4013;49.744;8.118;2023-03-01T12:43:19;5.60;99.90
7936;DHT22;4013;49.744;8.118;2023-03-01T12:45:54;5.70;99.90
7936;DHT22;4013;49.744;8.118;2023-03-01T12:48:31;5.90;99.90
7936;DHT22;4013;49.744;8.118;2023-03-01T12:51:06;6.10;99.90
7936;DHT22;4013;49.744;8.118;2023-03-01T12:53:38;6.20;99.90
7936;DHT22;4013;49.744;8.118;2023-03-01T12:56:08;6.10;99.90
7936;DHT22;4013;49.744;8.118;2023-03-01T12:58:44;6.20;99.90
7936;DHT22;4013;49.744;8.118;2023-03-01T13:01:27;6.10;99.90
7936;DHT22;4013;49.744;8.118;2023-03-01T13:04:12;6.30;99.90
7936;DHT22;4013;49.744;8.118;2023-03-01T13:06:47;6.40;99.90
7936;DHT22;4013;49.744;8.118;2023-03-01T13:09:25;6.30;99.90
7936;DHT22;4013;49.744;8.118;2023-03-01T13:11:56;6.30;99.90
7936;DHT22;4013;49.744;8.118;2023-03-01T13:14:51;6.50;99.90
7936;DHT22;4013;49.744;8.118;2023-03-01T13:17:39;6.50;99.90
7936;DHT22;4013;49.744;8.118;2023-03-01T13:20:15;6.60;99.90
7936;DHT22;4013;49.744;8.118;2023-03-01T13:22:45;6.70;99.90
7936;DHT22;4013;49.744;8.118;2023-03-01T13:25:15;6.70;99.90
7936;DHT22;4013;49.744;8.118;2023-03-01T13:27:43;6.80;99.90
7936;DHT22;4013;49.744;8.118;2023-03-01T13:30:39;6.80;99.90
7936;DHT22;4013;49.744;8.118;2023-03-01T13:33:33;7.60;98.80
7936;DHT22;4013;49.744;8.118;2023-03-01T13:36:07;8.50;93.00
7936;DHT22;4013;49.744;8.118;2023-03-01T13:38:38;9.00;90.00
7936;DHT22;4013;49.744;8.118;2023-03-01T13:41:11;9.80;78.80
7936;DHT22;4013;49.744;8.118;2023-03-01T13:43:41;10.20;71.90
7936;DHT22;4013;49.744;8.118;2023-03-01T13:46:14;10.30;69.40
7936;DHT22;4013;49.744;8.118;2023-03-01T13:48:44;10.90;64.80
7936;DHT22;4013;49.744;8.118;2023-03-01T13:51:12;10.70;62.50
7936;DHT22;4013;49.744;8.118;2023-03-01T13:53:41;10.70;61.60
7936;DHT22;4013;49.744;8.118;2023-03-01T13:56:12;11.10;58.70
7936;DHT22;4013;49.744;8.118;2023-03-01T13:58:51;11.30;57.20
7936;DHT22;4013;49.744;8.118;2023-03-01T14:01:26;11.50;56.10
7936;DHT22;4013;49.744;8.118;2023-03-01T14:03:53;11.00;54.70
7936;DHT22;4013;49.744;8.118;2023-03-01T14:06:23;10.60;55.90
7936;DHT22;4013;49.744;8.118;2023-03-01T14:08:52;10.60;56.20
7936;DHT22;4013;49.744;8.118;2023-03-01T14:11:50;10.80;56.20
7936;DHT22;4013;49.744;8.118;2023-03-01T14:17:32;11.00;55.40
7936;DHT22;4013;49.744;8.118;2023-03-01T14:20:08;10.70;55.20
7936;DHT22;4013;49.744;8.118;2023-03-01T14:22:36;10.40;55.90
7936;DHT22;4013;49.744;8.118;2023-03-01T14:25:06;9.90;57.80
7936;DHT22;4013;49.744;8.118;2023-03-01T14:27:42;9.50;59.30
7936;DHT22;4013;49.744;8.118;2023-03-01T14:30:14;9.20;62.20
7936;DHT22;4013;49.744;8.118;2023-03-01T14:32:43;9.30;61.60
7936;DHT22;4013;49.744;8.118;2023-03-01T14:35:21;9.50;61.40
7936;DHT22;4013;49.744;8.118;2023-03-01T14:37:48;9.40;61.80
7936;DHT22;4013;49.744;8.118;2023-03-01T14:40:23;9.60;60.70
7936;DHT22;4013;49.744;8.118;2023-03-01T14:42:50;10.10;58.60
7936;DHT22;4013;49.744;8.118;2023-03-01T14:45:18;9.90;58.50
7936;DHT22;4013;49.744;8.118;2023-03-01T14:47:47;9.40;61.10
7936;DHT22;4013;49.744;8.118;2023-03-01T14:50:22;9.10;63.60
7936;DHT22;4013;49.744;8.118;2023-03-01T14:52:52;9.00;64.50
7936;DHT22;4013;49.744;8.118;2023-03-01T14:55:23;8.70;65.30
7936;DHT22;4013;49.744;8.118;2023-03-01T14:57:52;8.40;68.20
7936;DHT22;4013;49.744;8.118;2023-03-01T15:00:21;8.30;70.30
7936;DHT22;4013;49.744;8.118;2023-03-01T15:02:52;8.30;72.10
7936;DHT22;4013;49.744;8.118;2023-03-01T15:05:25;8.20;75.80
7936;DHT22;4013;49.744;8.118;2023-03-01T15:07:53;8.10;74.30
7936;DHT22;4013;49.744;8.118;2023-03-01T15:10:22;8.10;75.90
7936;DHT22;4013;49.744;8.118;2023-03-01T15:12:50;7.90;76.30
7936;DHT22;4013;49.744;8.118;2023-03-01T15:15:37;7.70;76.80
7936;DHT22;4013;49.744;8.118;2023-03-01T15:18:17;7.60;78.60
7936;DHT22;4013;49.744;8.118;2023-03-01T15:20:46;7.60;80.50
7936;DHT22;4013;49.744;8.118;2023-03-01T15:23:21;7.60;80.80
7936;DHT22;4013;49.744;8.118;2023-03-01T15:25:49;7.60;81.60
7936;DHT22;4013;49.744;8.118;2023-03-01T15:28:24;7.60;84.30
7936;DHT22;4013;49.744;8.118;2023-03-01T15:30:58;7.70;85.00
7936;DHT22;4013;49.744;8.118;2023-03-01T15:33:36;7.60;85.40
7936;DHT22;4013;49.744;8.118;2023-03-01T15:38:53;7.60;85.80
7936;DHT22;4013;49.744;8.118;2023-03-01T15:41:25;7.50;85.30
7936;DHT22;4013;49.744;8.118;2023-03-01T15:43:53;7.50;86.30
7936;DHT22;4013;49.744;8.118;2023-03-01T15:46:25;7.50;86.10
7936;DHT22;4013;49.744;8.118;2023-03-01T15:48:55;7.50;86.50
7936;DHT22;4013;49.744;8.118;2023-03-01T15:51:28;7.40;85.10
7936;DHT22;4013;49.744;8.118;2023-03-01T15:53:57;7.30;84.90
7936;DHT22;4013;49.744;8.118;2023-03-01T15:56:25;7.20;85.30
7936;DHT22;4013;49.744;8.118;2023-03-01T15:58:52;7.10;87.30
7936;DHT22;4013;49.744;8.118;2023-03-01T16:01:19;7.10;90.00
7936;DHT22;4013;49.744;8.118;2023-03-01T16:03:46;7.20;91.10
7936;DHT22;4013;49.744;8.118;2023-03-01T16:06:14;7.20;91.00
7936;DHT22;4013;49.744;8.118;2023-03-01T16:08:41;7.10;90.90
7936;DHT22;4013;49.744;8.118;2023-03-01T16:11:16;7.10;91.40
7936;DHT22;4013;49.744;8.118;2023-03-01T16:13:44;7.10;91.40
7936;DHT22;4013;49.744;8.118;2023-03-01T16:16:12;7.00;91.30
7936;DHT22;4013;49.744;8.118;2023-03-01T16:18:42;6.90;92.00
7936;DHT22;4013;49.744;8.118;2023-03-01T16:21:18;6.80;92.30
7936;DHT22;4013;49.744;8.118;2023-03-01T16:23:46;6.80;92.50
7936;DHT22;4013;49.744;8.118;2023-03-01T16:26:13;6.80;93.00
7936;DHT22;4013;49.744;8.118;2023-03-01T16:28:40;6.80;92.90
7936;DHT22;4013;49.744;8.118;2023-03-01T16:31:07;6.70;92.80
7936;DHT22;4013;49.744;8.118;2023-03-01T16:33:35;6.70;93.40
7936;DHT22;4013;49.744;8.118;2023-03-01T16:36:07;6.70;93.20
7936;DHT22;4013;49.744;8.118;2023-03-01T16:38:35;6.70;93.10
7936;DHT22;4013;49.744;8.118;2023-03-01T16:41:02;6.60;93.10
7936;DHT22;4013;49.744;8.118;2023-03-01T16:43:30;6.60;93.70